Terminal Aerodrome Forecast
Issued by NWS Green Bay, WI

Home | Current Version | Previous Version | Graphics & Text | Print | Product List | Glossary On
Versions: 1 2 3 4 5 6 7 8 9 10 11 12 13 14 15 16 17 18 19 20 21 22 23 24 25 26 27 28 29 30 31
000
FTUS43 KGRB 211100
TAFGRB
TAF
KGRB 211138Z 2112/2212 21004KT P6SM BKN120
     FM211500 21007KT P6SM SCT120
     FM212300 19009KT P6SM SCT080 SCT120 WS015/22030KT
     FM220300 20010KT P6SM BKN020 WS015/22045KT
     FM220900 21010KT P6SM OVC015 WS015/22045KT PROB30 2209/2212 5SM
      -FZDZ BR=

USA.gov is the U.S. government's official web portal to all federal, state and local government web resources and services.